Time;durP1;ratioP1;P1;durP2;ratioP2;P2;SDS_P1;SDS_P2;PMS_P1;PMS_P2;Temp;Humidity;BMP_temperature;BMP_pressure;BME280_temperature;BME280_humidity;BME280_pressure;Samples;Min_cycle;Max_cycle;Signal;HPM_P1;HPM_P2
2021/11/18 00:00:41;;;;;;;;;;;9.90;99.90;;;;;;5035771;28;19971;-80
2021/11/18 00:03:07;;;;;;;;;;;10.00;99.90;;;;;;5035921;28;20350;-80
2021/11/18 00:05:33;;;;;;;;;;;10.10;99.90;;;;;;5035727;28;19912;-80
2021/11/18 00:07:59;;;;;;;;;;;10.00;99.90;;;;;;5035679;28;19913;-79
2021/11/18 00:10:32;;;;;;;;;;;10.30;99.90;;;;;;5035623;28;19905;-80
2021/11/18 00:12:59;;;;;;;;;;;10.50;99.90;;;;;;5035325;28;19971;-81
2021/11/18 00:15:26;;;;;;;;;;;10.60;99.90;;;;;;5035723;28;19916;-81
2021/11/18 00:17:59;;;;;;;;;;;10.10;99.90;;;;;;5035565;28;19905;-81
2021/11/18 00:20:26;;;;;;;;;;;10.20;99.90;;;;;;5035398;28;19905;-81
2021/11/18 00:22:52;;;;;;;;;;;10.40;99.90;;;;;;5035329;28;19991;-80
2021/11/18 00:25:18;;;;;;;;;;;10.60;99.90;;;;;;5035296;28;19995;-81
2021/11/18 00:27:43;;;;;;;;;;;10.60;99.90;;;;;;5035230;28;19959;-80
2021/11/18 00:30:10;;;;;;;;;;;10.60;99.90;;;;;;5035170;28;19951;-81
2021/11/18 00:32:36;;;;;;;;;;;10.50;99.90;;;;;;5033842;28;19905;-80
2021/11/18 00:35:03;;;;;;;;;;;10.50;99.90;;;;;;5035578;28;19916;-81
2021/11/18 00:37:28;;;;;;;;;;;10.30;99.90;;;;;;5035027;28;19905;-80
2021/11/18 00:39:54;;;;;;;;;;;10.20;99.90;;;;;;5034907;28;19905;-81
2021/11/18 00:42:20;;;;;;;;;;;10.60;99.90;;;;;;5034959;28;19909;-81
2021/11/18 00:44:45;;;;;;;;;;;10.50;99.90;;;;;;5033616;28;19909;-80
2021/11/18 00:47:11;;;;;;;;;;;10.20;99.90;;;;;;5035108;28;19991;-81
2021/11/18 00:49:37;;;;;;;;;;;10.20;99.90;;;;;;5034960;28;19905;-80
2021/11/18 00:52:02;;;;;;;;;;;10.60;99.90;;;;;;5034771;28;19999;-81
2021/11/18 00:54:28;;;;;;;;;;;10.60;99.90;;;;;;5033915;28;19909;-81
2021/11/18 00:56:54;;;;;;;;;;;10.00;99.90;;;;;;5033463;28;19911;-81
2021/11/18 00:59:19;;;;;;;;;;;10.00;99.90;;;;;;5034731;28;19963;-80
2021/11/18 01:01:46;;;;;;;;;;;10.10;99.90;;;;;;5034683;28;19909;-81
2021/11/18 01:04:13;;;;;;;;;;;10.20;99.90;;;;;;5034517;28;19905;-81
2021/11/18 01:06:39;;;;;;;;;;;10.20;99.90;;;;;;5034688;28;19909;-79
2021/11/18 01:09:05;;;;;;;;;;;10.10;99.90;;;;;;5034421;28;20066;-81
2021/11/18 01:11:32;;;;;;;;;;;10.00;99.90;;;;;;5034392;28;20393;-81
2021/11/18 01:13:58;;;;;;;;;;;10.10;99.90;;;;;;5033885;28;19917;-80
2021/11/18 01:16:25;;;;;;;;;;;10.20;99.90;;;;;;5034293;28;20292;-80
2021/11/18 01:18:51;;;;;;;;;;;10.10;99.90;;;;;;5034436;28;19905;-81
2021/11/18 01:21:17;;;;;;;;;;;10.20;99.90;;;;;;5034508;28;20281;-80
2021/11/18 01:23:44;;;;;;;;;;;10.10;99.90;;;;;;5034194;28;19905;-80
2021/11/18 01:26:10;;;;;;;;;;;9.90;99.90;;;;;;5034216;28;20340;-80
2021/11/18 01:28:36;;;;;;;;;;;10.20;99.90;;;;;;5032796;28;20281;-80
2021/11/18 01:31:02;;;;;;;;;;;10.40;99.90;;;;;;5032833;28;19996;-80
2021/11/18 01:33:28;;;;;;;;;;;10.20;99.90;;;;;;5034143;28;19905;-80
2021/11/18 01:35:54;;;;;;;;;;;10.20;99.90;;;;;;5034247;28;19912;-80
2021/11/18 01:38:21;;;;;;;;;;;10.10;99.90;;;;;;5033920;28;19908;-80
2021/11/18 01:40:48;;;;;;;;;;;10.10;99.90;;;;;;5033971;28;19906;-81
2021/11/18 01:43:14;;;;;;;;;;;10.30;99.90;;;;;;5034076;28;20392;-81
2021/11/18 01:45:40;;;;;;;;;;;10.40;99.90;;;;;;5034000;28;20277;-80
2021/11/18 01:48:06;;;;;;;;;;;10.40;99.90;;;;;;5034065;28;19912;-80
2021/11/18 01:50:34;;;;;;;;;;;10.50;99.90;;;;;;5033831;28;19905;-81
2021/11/18 01:53:02;;;;;;;;;;;10.40;99.90;;;;;;5034206;28;19909;-80
2021/11/18 01:55:28;;;;;;;;;;;10.30;99.90;;;;;;5033942;28;19909;-80
2021/11/18 01:57:55;;;;;;;;;;;10.20;99.90;;;;;;5033698;28;19905;-81
2021/11/18 02:00:31;;;;;;;;;;;10.40;99.90;;;;;;5033676;28;19905;-81
2021/11/18 02:02:57;;;;;;;;;;;10.50;99.90;;;;;;5033975;28;19905;-82
2021/11/18 02:05:25;;;;;;;;;;;10.40;99.90;;;;;;5033533;28;19905;-80
2021/11/18 02:07:50;;;;;;;;;;;10.30;99.90;;;;;;5033591;28;19906;-80
2021/11/18 02:10:18;;;;;;;;;;;10.30;99.90;;;;;;5033601;28;19960;-81
2021/11/18 02:12:43;;;;;;;;;;;10.40;99.90;;;;;;5032111;28;19921;-81
2021/11/18 02:15:35;;;;;;;;;;;10.40;99.90;;;;;;5033703;28;20373;-80
2021/11/18 02:18:02;;;;;;;;;;;10.20;99.90;;;;;;5031366;28;19905;-80
2021/11/18 02:20:31;;;;;;;;;;;10.20;99.90;;;;;;5033558;28;19932;-81
2021/11/18 02:22:56;;;;;;;;;;;10.40;99.90;;;;;;5033464;28;20277;-81
2021/11/18 02:25:31;;;;;;;;;;;10.50;99.90;;;;;;5033466;28;19905;-80
2021/11/18 02:27:58;;;;;;;;;;;10.50;99.90;;;;;;5033404;28;19955;-80
2021/11/18 02:30:26;;;;;;;;;;;10.40;99.90;;;;;;5033665;28;20314;-80
2021/11/18 02:32:52;;;;;;;;;;;10.30;99.90;;;;;;5033349;28;19905;-79
2021/11/18 02:35:21;;;;;;;;;;;10.20;99.90;;;;;;5033282;28;19976;-81
2021/11/18 02:37:47;;;;;;;;;;;10.30;99.90;;;;;;5033323;28;20421;-80
2021/11/18 02:40:13;;;;;;;;;;;10.40;99.90;;;;;;5033367;28;19944;-80
2021/11/18 02:42:39;;;;;;;;;;;10.40;99.90;;;;;;5033850;28;19952;-81
2021/11/18 02:45:07;;;;;;;;;;;10.50;99.90;;;;;;5033262;28;19905;-80
2021/11/18 02:47:32;;;;;;;;;;;10.10;99.90;;;;;;5033477;28;19913;-80
2021/11/18 02:49:58;;;;;;;;;;;10.10;99.90;;;;;;5033397;28;19905;-80
2021/11/18 02:52:28;;;;;;;;;;;10.00;99.90;;;;;;5033220;28;19913;-80
2021/11/18 02:54:58;;;;;;;;;;;9.80;99.90;;;;;;5033341;28;19909;-80
2021/11/18 02:57:24;;;;;;;;;;;10.00;99.90;;;;;;5033157;28;19928;-80
2021/11/18 02:59:50;;;;;;;;;;;9.90;99.90;;;;;;5033272;28;20289;-80
2021/11/18 03:02:15;;;;;;;;;;;9.70;99.90;;;;;;5033123;28;19988;-81
2021/11/18 03:04:41;;;;;;;;;;;9.70;99.90;;;;;;5033016;28;19917;-81
2021/11/18 03:07:07;;;;;;;;;;;9.50;99.90;;;;;;5031821;28;19905;-80
2021/11/18 03:09:32;;;;;;;;;;;9.50;99.90;;;;;;5033202;28;19905;-80
2021/11/18 03:11:59;;;;;;;;;;;9.60;99.90;;;;;;5048189;28;20336;-80
2021/11/18 03:14:25;;;;;;;;;;;9.80;99.90;;;;;;5033091;28;19909;-81
2021/11/18 03:16:51;;;;;;;;;;;10.10;99.90;;;;;;5033572;28;19959;-81
2021/11/18 03:19:17;;;;;;;;;;;10.30;99.90;;;;;;5036718;28;19958;-81
2021/11/18 03:21:42;;;;;;;;;;;10.30;99.90;;;;;;5051868;28;19909;-81
2021/11/18 03:24:08;;;;;;;;;;;9.90;99.90;;;;;;5035152;28;19913;-80
2021/11/18 03:26:34;;;;;;;;;;;9.90;99.90;;;;;;5035116;28;19905;-81
2021/11/18 03:29:01;;;;;;;;;;;9.80;99.90;;;;;;5036402;28;20331;-81
2021/11/18 03:31:27;;;;;;;;;;;9.90;99.90;;;;;;5036398;28;19904;-81
2021/11/18 03:33:55;;;;;;;;;;;10.20;99.90;;;;;;5036596;28;19905;-80
2021/11/18 03:36:22;;;;;;;;;;;10.20;99.90;;;;;;5036260;28;19915;-80
2021/11/18 03:38:48;;;;;;;;;;;10.00;99.90;;;;;;5036119;28;19905;-81
2021/11/18 03:41:14;;;;;;;;;;;9.80;99.90;;;;;;5034842;28;19912;-80
2021/11/18 03:43:42;;;;;;;;;;;9.60;99.90;;;;;;5036349;28;20003;-81
2021/11/18 03:46:08;;;;;;;;;;;9.70;99.90;;;;;;5036034;28;19905;-80
2021/11/18 03:48:34;;;;;;;;;;;9.90;99.90;;;;;;5035988;28;19905;-80
2021/11/18 03:51:01;;;;;;;;;;;9.90;99.90;;;;;;5035937;28;19909;-80
2021/11/18 03:53:26;;;;;;;;;;;9.70;99.90;;;;;;5036115;28;19912;-81
2021/11/18 03:55:52;;;;;;;;;;;9.80;99.90;;;;;;5036033;28;19909;-80
2021/11/18 03:58:18;;;;;;;;;;;9.90;99.90;;;;;;5035966;28;20369;-81
2021/11/18 04:00:44;;;;;;;;;;;9.60;99.90;;;;;;5035894;28;19912;-81
2021/11/18 04:03:10;;;;;;;;;;;9.60;99.90;;;;;;5035723;28;19909;-81
2021/11/18 04:05:38;;;;;;;;;;;9.70;99.90;;;;;;5035628;28;19909;-80
2021/11/18 04:08:04;;;;;;;;;;;9.60;99.90;;;;;;5035837;28;19934;-80
2021/11/18 04:10:31;;;;;;;;;;;9.70;99.90;;;;;;5035586;28;19909;-80
2021/11/18 04:12:56;;;;;;;;;;;9.60;99.90;;;;;;5035350;28;19964;-81
2021/11/18 04:15:23;;;;;;;;;;;9.60;99.90;;;;;;5035515;28;19967;-81
2021/11/18 04:17:48;;;;;;;;;;;9.40;99.90;;;;;;5035435;28;19909;-81
2021/11/18 04:20:14;;;;;;;;;;;9.50;99.90;;;;;;5035428;28;20281;-81
2021/11/18 04:22:41;;;;;;;;;;;9.50;99.90;;;;;;5035354;28;19909;-82
2021/11/18 04:25:07;;;;;;;;;;;9.30;99.90;;;;;;5035394;28;19967;-80
2021/11/18 04:27:33;;;;;;;;;;;9.20;99.90;;;;;;5033666;28;19905;-80
2021/11/18 04:29:58;;;;;;;;;;;9.20;99.90;;;;;;5034359;28;19912;-80
2021/11/18 04:32:26;;;;;;;;;;;9.00;99.90;;;;;;5033856;28;19905;-80
2021/11/18 04:34:52;;;;;;;;;;;8.90;99.90;;;;;;5035221;28;19928;-81
2021/11/18 04:37:18;;;;;;;;;;;9.00;99.90;;;;;;5035347;28;19905;-80
2021/11/18 04:39:44;;;;;;;;;;;9.00;99.90;;;;;;5034957;28;19909;-81
2021/11/18 04:42:10;;;;;;;;;;;9.00;99.90;;;;;;5034941;28;19913;-80
2021/11/18 04:44:36;;;;;;;;;;;9.00;99.90;;;;;;5034973;28;20027;-81
2021/11/18 04:47:04;;;;;;;;;;;9.00;99.90;;;;;;5033640;28;20037;-80
2021/11/18 04:49:29;;;;;;;;;;;8.80;99.90;;;;;;5034902;28;20366;-81
2021/11/18 04:51:55;;;;;;;;;;;8.80;99.90;;;;;;5035132;28;19912;-80
2021/11/18 04:54:20;;;;;;;;;;;8.70;99.90;;;;;;5034843;28;20431;-81
2021/11/18 04:56:46;;;;;;;;;;;8.60;99.90;;;;;;5034722;28;19905;-80
2021/11/18 04:59:12;;;;;;;;;;;8.50;99.90;;;;;;5034636;28;20289;-80
2021/11/18 05:01:37;;;;;;;;;;;8.60;99.90;;;;;;5034680;28;19912;-81
2021/11/18 05:04:04;;;;;;;;;;;8.60;99.90;;;;;;5033281;28;19991;-80
2021/11/18 05:06:30;;;;;;;;;;;8.80;99.90;;;;;;5034651;28;19909;-81
2021/11/18 05:08:55;;;;;;;;;;;9.00;99.90;;;;;;5034487;28;19911;-81
2021/11/18 05:11:21;;;;;;;;;;;9.00;99.90;;;;;;5034433;28;19912;-80
2021/11/18 05:13:47;;;;;;;;;;;8.90;99.90;;;;;;5034167;28;19917;-81
2021/11/18 05:16:15;;;;;;;;;;;9.10;99.90;;;;;;5034345;28;19909;-81
2021/11/18 05:18:41;;;;;;;;;;;9.10;99.90;;;;;;5034584;28;19935;-80
2021/11/18 05:21:09;;;;;;;;;;;9.10;99.90;;;;;;5034443;28;20330;-81
2021/11/18 05:23:34;;;;;;;;;;;8.90;99.90;;;;;;5034142;28;19905;-80
2021/11/18 05:26:00;;;;;;;;;;;8.70;99.90;;;;;;5034196;28;19959;-80
2021/11/18 05:28:26;;;;;;;;;;;8.60;99.90;;;;;;5034151;28;19905;-81
2021/11/18 05:30:51;;;;;;;;;;;8.60;99.90;;;;;;5034217;28;19905;-80
2021/11/18 05:33:18;;;;;;;;;;;8.50;99.90;;;;;;5034070;28;19905;-80
2021/11/18 05:35:44;;;;;;;;;;;8.40;99.90;;;;;;5034489;28;19905;-81
2021/11/18 05:38:10;;;;;;;;;;;8.30;99.90;;;;;;5034190;28;20004;-80
2021/11/18 05:40:40;;;;;;;;;;;8.40;99.90;;;;;;5033533;28;19990;-80
2021/11/18 05:43:06;;;;;;;;;;;8.60;99.90;;;;;;5034017;28;20350;-80
2021/11/18 05:45:33;;;;;;;;;;;8.50;99.90;;;;;;5033818;28;19909;-80
2021/11/18 05:47:59;;;;;;;;;;;8.40;99.90;;;;;;5033851;28;19953;-80
2021/11/18 05:50:25;;;;;;;;;;;8.70;99.90;;;;;;5032579;28;20373;-80
2021/11/18 05:52:50;;;;;;;;;;;8.80;99.90;;;;;;5033826;28;19909;-80
2021/11/18 05:55:18;;;;;;;;;;;8.60;99.90;;;;;;5033781;28;19906;-81
2021/11/18 05:57:46;;;;;;;;;;;8.50;99.90;;;;;;5033878;28;19905;-81
2021/11/18 06:00:13;;;;;;;;;;;8.60;99.90;;;;;;5033802;28;19905;-80
2021/11/18 06:02:39;;;;;;;;;;;8.60;99.90;;;;;;5033749;28;20320;-81
2021/11/18 06:05:05;;;;;;;;;;;8.50;99.90;;;;;;5033575;28;19909;-80
2021/11/18 06:07:31;;;;;;;;;;;8.70;99.90;;;;;;5034000;28;20399;-80
2021/11/18 06:09:57;;;;;;;;;;;8.70;99.90;;;;;;5033608;28;19954;-79
2021/11/18 06:12:24;;;;;;;;;;;8.90;99.90;;;;;;5033377;28;19996;-80
2021/11/18 06:14:50;;;;;;;;;;;9.10;99.90;;;;;;5033561;28;19909;-80
2021/11/18 06:17:16;;;;;;;;;;;9.20;99.90;;;;;;5033531;28;20381;-80
2021/11/18 06:19:42;;;;;;;;;;;9.20;99.90;;;;;;5033823;28;19905;-80
2021/11/18 06:22:08;;;;;;;;;;;9.10;99.90;;;;;;5033596;28;19909;-81
2021/11/18 06:24:34;;;;;;;;;;;9.20;99.90;;;;;;5033406;28;20250;-81
2021/11/18 06:26:59;;;;;;;;;;;9.10;99.90;;;;;;5033519;28;19917;-81
2021/11/18 06:29:29;;;;;;;;;;;9.00;99.90;;;;;;5033479;28;20004;-80
2021/11/18 06:31:56;;;;;;;;;;;8.80;99.90;;;;;;5033422;28;19932;-80
2021/11/18 06:34:22;;;;;;;;;;;8.60;99.90;;;;;;5033393;28;19947;-81
2021/11/18 06:36:49;;;;;;;;;;;8.60;99.90;;;;;;5033538;28;19909;-80
2021/11/18 06:39:15;;;;;;;;;;;8.70;99.90;;;;;;5033285;28;19960;-80
2021/11/18 06:41:41;;;;;;;;;;;8.80;99.90;;;;;;5033454;28;19909;-80
2021/11/18 06:44:07;;;;;;;;;;;8.70;99.90;;;;;;5033230;28;19916;-81
2021/11/18 06:46:32;;;;;;;;;;;8.50;99.90;;;;;;5033474;28;19905;-80
2021/11/18 06:48:58;;;;;;;;;;;8.30;99.90;;;;;;5033586;28;19913;-81
2021/11/18 06:51:25;;;;;;;;;;;8.20;99.90;;;;;;5033277;28;19905;-80
2021/11/18 06:53:51;;;;;;;;;;;8.20;99.90;;;;;;5037243;28;19909;-81
2021/11/18 06:56:18;;;;;;;;;;;8.20;99.90;;;;;;5037079;28;19928;-81
2021/11/18 06:58:43;;;;;;;;;;;8.20;99.90;;;;;;5036911;28;19955;-80
2021/11/18 07:01:09;;;;;;;;;;;8.20;99.90;;;;;;5037005;28;19905;-80
2021/11/18 07:03:39;;;;;;;;;;;8.40;99.90;;;;;;5036843;28;19909;-80
2021/11/18 07:06:06;;;;;;;;;;;8.50;99.90;;;;;;5036836;28;19906;-80
2021/11/18 07:08:32;;;;;;;;;;;8.70;99.90;;;;;;5036747;28;20019;-81
2021/11/18 07:10:58;;;;;;;;;;;8.60;99.90;;;;;;5037297;28;20003;-81
2021/11/18 07:13:24;;;;;;;;;;;8.70;99.90;;;;;;5036482;28;19949;-81
2021/11/18 07:15:51;;;;;;;;;;;9.00;99.90;;;;;;5036806;28;19912;-80
2021/11/18 07:18:17;;;;;;;;;;;9.00;99.90;;;;;;5036591;28;19909;-80
2021/11/18 07:20:43;;;;;;;;;;;9.00;99.90;;;;;;5037020;28;19957;-81
2021/11/18 07:23:09;;;;;;;;;;;8.90;99.90;;;;;;5036543;28;20447;-81
2021/11/18 07:25:35;;;;;;;;;;;8.80;99.90;;;;;;5036426;28;19914;-79
2021/11/18 07:28:01;;;;;;;;;;;8.90;99.90;;;;;;5035130;28;19905;-80
2021/11/18 07:30:27;;;;;;;;;;;9.00;99.90;;;;;;5036756;28;19912;-81
2021/11/18 07:32:53;;;;;;;;;;;8.80;99.90;;;;;;5036315;28;19905;-80
2021/11/18 07:35:20;;;;;;;;;;;8.70;99.90;;;;;;5036371;28;19911;-80
2021/11/18 07:37:46;;;;;;;;;;;8.80;99.90;;;;;;5036306;28;19905;-80
2021/11/18 07:40:13;;;;;;;;;;;8.70;99.90;;;;;;5036100;28;19955;-81
2021/11/18 07:42:39;;;;;;;;;;;8.70;99.90;;;;;;5036331;28;19905;-80
2021/11/18 07:45:06;;;;;;;;;;;8.70;99.90;;;;;;5036153;28;19948;-81
2021/11/18 07:47:31;;;;;;;;;;;8.70;99.90;;;;;;5036140;28;19905;-81
2021/11/18 07:49:57;;;;;;;;;;;9.10;99.90;;;;;;5036024;28;19912;-81
2021/11/18 07:52:22;;;;;;;;;;;9.20;99.90;;;;;;5036308;28;19912;-81
2021/11/18 07:54:48;;;;;;;;;;;9.20;99.90;;;;;;5035838;28;19913;-81
2021/11/18 07:57:13;;;;;;;;;;;8.90;99.90;;;;;;5036064;28;19934;-81
2021/11/18 07:59:39;;;;;;;;;;;8.80;99.90;;;;;;5035809;28;19905;-81
2021/11/18 08:02:05;;;;;;;;;;;8.80;99.90;;;;;;5035812;28;19905;-81
2021/11/18 08:04:31;;;;;;;;;;;9.10;99.90;;;;;;5035394;28;19909;-81
2021/11/18 08:06:59;;;;;;;;;;;9.10;99.90;;;;;;5035687;28;19905;-81
2021/11/18 08:09:25;;;;;;;;;;;9.20;99.90;;;;;;5035645;28;20285;-80
2021/11/18 08:11:52;;;;;;;;;;;9.20;99.90;;;;;;5035416;28;19909;-81
2021/11/18 08:14:18;;;;;;;;;;;9.10;99.90;;;;;;5035945;28;19912;-80
2021/11/18 08:16:45;;;;;;;;;;;9.40;99.90;;;;;;5035540;28;19905;-81
2021/11/18 08:19:10;;;;;;;;;;;9.60;99.90;;;;;;5034209;28;19909;-80
2021/11/18 08:21:36;;;;;;;;;;;9.60;99.90;;;;;;5035433;28;20277;-81
2021/11/18 08:24:03;;;;;;;;;;;9.60;99.90;;;;;;5035273;28;20361;-81
2021/11/18 08:26:29;;;;;;;;;;;9.70;99.90;;;;;;5035247;28;19912;-81
2021/11/18 08:28:55;;;;;;;;;;;9.70;99.90;;;;;;5009399;28;20052;-80
2021/11/18 08:31:21;;;;;;;;;;;10.00;99.90;;;;;;5035237;28;19905;-80
2021/11/18 08:33:46;;;;;;;;;;;10.00;99.90;;;;;;5035176;28;19953;-81
2021/11/18 08:36:12;;;;;;;;;;;10.40;99.90;;;;;;5035147;28;19905;-81
2021/11/18 08:38:38;;;;;;;;;;;10.60;99.90;;;;;;5035221;28;19959;-80
2021/11/18 08:41:05;;;;;;;;;;;9.80;99.90;;;;;;5035173;28;19905;-81
2021/11/18 08:43:33;;;;;;;;;;;10.20;99.90;;;;;;5034981;28;19905;-81
2021/11/18 08:46:00;;;;;;;;;;;10.50;99.90;;;;;;5034942;28;19909;-81
2021/11/18 08:48:26;;;;;;;;;;;10.30;99.90;;;;;;5035413;28;19905;-80
2021/11/18 08:50:52;;;;;;;;;;;10.50;99.90;;;;;;5035049;28;19940;-80
2021/11/18 08:53:19;;;;;;;;;;;10.60;99.90;;;;;;5034912;28;19905;-78
2021/11/18 08:55:45;;;;;;;;;;;10.60;99.90;;;;;;5034977;28;19988;-79
2021/11/18 08:58:12;;;;;;;;;;;10.60;99.90;;;;;;5034814;28;19959;-79
2021/11/18 09:00:41;;;;;;;;;;;10.70;99.90;;;;;;5034673;28;20488;-79
2021/11/18 09:03:06;;;;;;;;;;;11.00;99.90;;;;;;5034663;28;19951;-79
2021/11/18 09:05:33;;;;;;;;;;;11.30;99.90;;;;;;5034450;28;20324;-79
2021/11/18 09:07:59;;;;;;;;;;;11.30;99.90;;;;;;5034727;28;19905;-79
2021/11/18 09:10:26;;;;;;;;;;;11.50;99.90;;;;;;5034504;28;19954;-79
2021/11/18 09:12:51;;;;;;;;;;;11.60;99.90;;;;;;5034445;28;19996;-79
2021/11/18 09:15:19;;;;;;;;;;;11.50;99.90;;;;;;5033810;28;19952;-79
2021/11/18 09:17:45;;;;;;;;;;;11.40;99.90;;;;;;5034542;28;19948;-78
2021/11/18 09:20:11;;;;;;;;;;;11.40;99.90;;;;;;5034377;28;19916;-79
2021/11/18 09:22:38;;;;;;;;;;;11.90;99.90;;;;;;5034165;28;19944;-78
2021/11/18 09:25:06;;;;;;;;;;;12.40;99.90;;;;;;5034189;28;19913;-79
2021/11/18 09:27:37;;;;;;;;;;;12.50;99.90;;;;;;5034234;28;19905;-80
2021/11/18 09:30:05;;;;;;;;;;;12.00;99.90;;;;;;5034359;28;19920;-79
2021/11/18 09:32:32;;;;;;;;;;;12.00;99.90;;;;;;5032862;28;19909;-79
2021/11/18 09:34:58;;;;;;;;;;;12.00;99.90;;;;;;5034496;28;20280;-79
2021/11/18 09:37:24;;;;;;;;;;;12.10;99.90;;;;;;5034333;28;20278;-79
2021/11/18 09:39:50;;;;;;;;;;;12.30;99.90;;;;;;5033893;28;19909;-78
2021/11/18 09:42:18;;;;;;;;;;;12.50;99.90;;;;;;5034099;28;19963;-78
2021/11/18 09:44:49;;;;;;;;;;;12.70;99.90;;;;;;5033846;28;20354;-78
2021/11/18 09:47:21;;;;;;;;;;;12.90;99.90;;;;;;5034073;28;19909;-79
2021/11/18 09:50:05;;;;;;;;;;;12.90;99.90;;;;;;5033904;28;19940;-79
2021/11/18 09:52:49;;;;;;;;;;;12.60;99.90;;;;;;5033830;28;19956;-79
2021/11/18 09:55:26;;;;;;;;;;;12.60;99.90;;;;;;5033766;28;19959;-79
2021/11/18 09:57:57;;;;;;;;;;;12.70;99.90;;;;;;5033893;28;19905;-79
2021/11/18 10:00:26;;;;;;;;;;;12.80;99.90;;;;;;5033733;28;20023;-79
2021/11/18 10:03:10;;;;;;;;;;;13.20;99.90;;;;;;5032481;28;19905;-79
2021/11/18 10:05:40;;;;;;;;;;;13.50;99.90;;;;;;5033787;28;19959;-79
2021/11/18 10:08:16;;;;;;;;;;;13.00;99.90;;;;;;5033909;28;19981;-79
2021/11/18 10:10:48;;;;;;;;;;;13.10;99.90;;;;;;5033692;28;20293;-79
2021/11/18 10:13:29;;;;;;;;;;;12.80;99.90;;;;;;5033612;28;20004;-78
2021/11/18 10:15:58;;;;;;;;;;;12.60;99.90;;;;;;5033639;28;19951;-79
2021/11/18 10:18:29;;;;;;;;;;;12.50;99.90;;;;;;5032264;28;19912;-79
2021/11/18 10:20:58;;;;;;;;;;;13.00;99.90;;;;;;5033775;28;19905;-79
2021/11/18 10:23:24;;;;;;;;;;;12.80;99.90;;;;;;5033529;28;19932;-79
2021/11/18 10:25:53;;;;;;;;;;;13.00;99.90;;;;;;5032782;28;20401;-79
2021/11/18 10:28:18;;;;;;;;;;;13.00;99.90;;;;;;5037595;28;20326;-79
2021/11/18 10:30:50;;;;;;;;;;;12.90;99.90;;;;;;5037542;28;19912;-78
2021/11/18 10:33:21;;;;;;;;;;;13.00;99.90;;;;;;5035938;28;19999;-80
2021/11/18 10:36:08;;;;;;;;;;;13.10;99.90;;;;;;5037468;28;19905;-78
2021/11/18 10:38:33;;;;;;;;;;;13.60;99.90;;;;;;5037720;28;19905;-80
2021/11/18 10:41:05;;;;;;;;;;;13.70;99.90;;;;;;5037320;28;19905;-79
2021/11/18 10:43:34;;;;;;;;;;;13.30;99.90;;;;;;5037431;28;19916;-80
2021/11/18 10:45:59;;;;;;;;;;;13.70;99.90;;;;;;5037208;28;20383;-79
2021/11/18 10:48:30;;;;;;;;;;;14.20;99.90;;;;;;5037163;28;20003;-80
2021/11/18 10:50:57;;;;;;;;;;;14.60;99.90;;;;;;5037318;28;19905;-79
2021/11/18 10:53:26;;;;;;;;;;;15.20;98.60;;;;;;5035822;28;19908;-80
2021/11/18 10:56:03;;;;;;;;;;;15.50;98.20;;;;;;5037060;28;19912;-79
2021/11/18 10:58:31;;;;;;;;;;;16.00;97.80;;;;;;5035721;28;20015;-80
2021/11/18 11:01:04;;;;;;;;;;;15.50;97.30;;;;;;5036998;28;19940;-79
2021/11/18 11:03:35;;;;;;;;;;;15.60;99.00;;;;;;5036928;28;19905;-79
2021/11/18 11:06:19;;;;;;;;;;;16.20;97.00;;;;;;5036780;28;19913;-79
2021/11/18 11:08:46;;;;;;;;;;;15.80;97.10;;;;;;5036823;28;20353;-80
2021/11/18 11:11:23;;;;;;;;;;;16.20;95.80;;;;;;5037161;28;19935;-79
2021/11/18 11:14:04;;;;;;;;;;;15.50;95.30;;;;;;5036466;28;19921;-80
2021/11/18 11:16:48;;;;;;;;;;;15.60;94.50;;;;;;5036610;28;19905;-79
2021/11/18 11:19:31;;;;;;;;;;;15.30;95.00;;;;;;5036641;28;19905;-79
2021/11/18 11:22:06;;;;;;;;;;;15.60;95.10;;;;;;5036885;28;19905;-79
2021/11/18 11:24:34;;;;;;;;;;;15.10;94.20;;;;;;5036468;28;19996;-80
2021/11/18 11:27:18;;;;;;;;;;;15.10;95.00;;;;;;5036462;28;20321;-80
2021/11/18 11:29:46;;;;;;;;;;;14.90;95.30;;;;;;5035099;28;19905;-80
2021/11/18 11:32:12;;;;;;;;;;;16.00;94.70;;;;;;5036517;28;19912;-79
2021/11/18 11:34:56;;;;;;;;;;;16.60;92.70;;;;;;5036328;28;19905;-80
2021/11/18 11:37:45;;;;;;;;;;;17.30;91.00;;;;;;5035727;28;19905;-80
2021/11/18 11:40:10;;;;;;;;;;;17.80;90.00;;;;;;5026121;28;19908;-79
2021/11/18 11:42:50;;;;;;;;;;;16.50;89.00;;;;;;5036386;28;19905;-80
2021/11/18 11:45:34;;;;;;;;;;;16.10;90.50;;;;;;5036089;28;20349;-79
2021/11/18 11:48:05;;;;;;;;;;;16.40;90.30;;;;;;5036088;28;19912;-79
2021/11/18 11:50:47;;;;;;;;;;;16.60;91.00;;;;;;5036112;28;19916;-79
2021/11/18 11:53:20;;;;;;;;;;;16.10;90.60;;;;;;5036031;28;19958;-79
2021/11/18 11:55:57;;;;;;;;;;;16.80;90.30;;;;;;5036136;28;19905;-80
2021/11/18 11:58:30;;;;;;;;;;;16.50;89.00;;;;;;5035911;28;19911;-79
2021/11/18 12:01:01;;;;;;;;;;;15.70;90.90;;;;;;5036013;28;19905;-79
2021/11/18 12:03:45;;;;;;;;;;;15.30;91.40;;;;;;5035890;28;19912;-78
2021/11/18 12:06:21;;;;;;;;;;;15.00;92.30;;;;;;5035880;28;20365;-79
2021/11/18 12:08:46;;;;;;;;;;;15.20;92.60;;;;;;5035674;28;19909;-79
2021/11/18 12:11:14;;;;;;;;;;;15.40;92.00;;;;;;5035669;28;19905;-79
2021/11/18 12:13:39;;;;;;;;;;;15.80;91.70;;;;;;5035404;28;19917;-80
2021/11/18 12:16:10;;;;;;;;;;;15.90;91.30;;;;;;5035467;28;19985;-79
2021/11/18 12:18:43;;;;;;;;;;;15.00;92.60;;;;;;5035967;28;19940;-79
2021/11/18 12:21:09;;;;;;;;;;;14.60;92.70;;;;;;5034529;28;19912;-79
2021/11/18 12:23:53;;;;;;;;;;;15.10;92.90;;;;;;5035184;28;19905;-79
2021/11/18 12:26:19;;;;;;;;;;;14.90;91.90;;;;;;5035521;28;19924;-79
2021/11/18 12:29:09;;;;;;;;;;;15.30;91.90;;;;;;5035603;28;19905;-79
2021/11/18 12:31:34;;;;;;;;;;;15.90;91.50;;;;;;5035396;28;19905;-79
2021/11/18 12:34:03;;;;;;;;;;;16.20;90.90;;;;;;5035188;28;20480;-79
2021/11/18 12:36:37;;;;;;;;;;;15.90;91.00;;;;;;5035193;28;19955;-80
2021/11/18 12:39:22;;;;;;;;;;;15.20;92.70;;;;;;5033785;28;19913;-79
2021/11/18 12:42:04;;;;;;;;;;;15.00;93.10;;;;;;5035075;28;19996;-78
2021/11/18 12:44:39;;;;;;;;;;;14.90;93.40;;;;;;5035148;28;19909;-79
2021/11/18 12:47:11;;;;;;;;;;;14.70;93.90;;;;;;5035022;28;19905;-79
2021/11/18 12:49:52;;;;;;;;;;;14.40;94.20;;;;;;5033940;28;19905;-79
2021/11/18 12:52:35;;;;;;;;;;;14.90;94.60;;;;;;5033407;28;19905;-80
2021/11/18 12:55:13;;;;;;;;;;;14.90;93.80;;;;;;5034838;28;19905;-79
2021/11/18 12:57:44;;;;;;;;;;;14.80;93.30;;;;;;5035305;28;19909;-79
2021/11/18 13:00:29;;;;;;;;;;;14.00;93.60;;;;;;5034721;28;19905;-79
2021/11/18 13:02:57;;;;;;;;;;;14.10;94.30;;;;;;5034555;28;20039;-80
2021/11/18 13:05:22;;;;;;;;;;;14.50;93.90;;;;;;5034776;28;19916;-79
2021/11/18 13:07:54;;;;;;;;;;;14.90;93.30;;;;;;5034626;28;19917;-80
2021/11/18 13:10:29;;;;;;;;;;;15.10;92.90;;;;;;5111770;27;20295;-79
2021/11/18 13:12:58;;;;;;;;;;;14.80;92.60;;;;;;5111887;28;19939;-80
2021/11/18 13:15:32;;;;;;;;;;;14.70;93.30;;;;;;5110218;28;19914;-80
2021/11/18 13:17:59;;;;;;;;;;;14.60;93.60;;;;;;5111666;28;20007;-80
2021/11/18 13:20:43;;;;;;;;;;;14.60;93.20;;;;;;5111491;28;19908;-79
2021/11/18 13:23:35;;;;;;;;;;;14.90;93.80;;;;;;5110119;28;19912;-78
2021/11/18 13:26:03;;;;;;;;;;;15.40;93.50;;;;;;5102404;28;19908;-79
2021/11/18 13:28:40;;;;;;;;;;;15.50;92.40;;;;;;5111219;28;19916;-79
2021/11/18 13:31:06;;;;;;;;;;;14.70;92.70;;;;;;5111680;28;19908;-79
2021/11/18 13:33:43;;;;;;;;;;;14.60;93.30;;;;;;5111351;28;19947;-79
2021/11/18 13:36:23;;;;;;;;;;;14.80;93.00;;;;;;5111306;28;19912;-79
2021/11/18 13:39:04;;;;;;;;;;;15.10;92.70;;;;;;5111135;28;19930;-79
2021/11/18 13:41:43;;;;;;;;;;;14.80;92.10;;;;;;5111481;28;19908;-79
2021/11/18 13:44:10;;;;;;;;;;;14.90;92.30;;;;;;5111115;28;19915;-80
2021/11/18 13:46:37;;;;;;;;;;;15.50;91.80;;;;;;5109714;28;19915;-78
2021/11/18 13:49:19;;;;;;;;;;;15.80;91.10;;;;;;5110813;28;19912;-78
2021/11/18 13:51:48;;;;;;;;;;;15.60;91.40;;;;;;5111152;28;19947;-79
2021/11/18 13:54:23;;;;;;;;;;;15.50;91.40;;;;;;5110870;28;19908;-79
2021/11/18 13:57:15;;;;;;;;;;;15.70;91.10;;;;;;5110802;28;20007;-80
2021/11/18 13:59:46;;;;;;;;;;;15.70;90.20;;;;;;5108690;28;19912;-79
2021/11/18 14:02:12;;;;;;;;;;;15.20;90.50;;;;;;5110760;28;19915;-80
2021/11/18 14:04:44;;;;;;;;;;;14.70;91.20;;;;;;5110590;28;19908;-80
2021/11/18 14:07:10;;;;;;;;;;;15.00;91.90;;;;;;5110546;28;19915;-79
2021/11/18 14:09:44;;;;;;;;;;;15.30;91.50;;;;;;5110346;28;19974;-79
2021/11/18 14:12:19;;;;;;;;;;;15.10;91.20;;;;;;5110646;28;19908;-79
2021/11/18 14:14:45;;;;;;;;;;;15.60;91.00;;;;;;5110446;28;19994;-79
2021/11/18 14:17:22;;;;;;;;;;;15.40;91.00;;;;;;5110352;28;20012;-78
2021/11/18 14:19:56;;;;;;;;;;;15.30;91.40;;;;;;5108477;28;19915;-79
2021/11/18 14:22:26;;;;;;;;;;;14.90;91.20;;;;;;5096683;28;19915;-79
2021/11/18 14:24:54;;;;;;;;;;;14.90;92.40;;;;;;5096715;28;19908;-79
2021/11/18 14:27:19;;;;;;;;;;;14.80;92.40;;;;;;5096501;28;19908;-79
2021/11/18 14:30:20;;;;;;;;;;;14.60;91.10;;;;;;5096510;28;20380;-80